Time;durP1;ratioP1;P1;durP2;ratioP2;P2;SDS_P1;SDS_P2;PMS_P1;PMS_P2;Temp;Humidity;BMP_temperature;BMP_pressure;BME280_temperature;BME280_humidity;BME280_pressure;Samples;Min_cycle;Max_cycle;Signal;HPM_P1;HPM_P2
2023/04/02 00:01:00;;;;;;;;;;;;;;;;;;5049600;28;5076;-50
2023/04/02 00:03:41;;;;;;;;;;;;;;;;;;5030989;28;4451;-51
2023/04/02 00:06:29;;;;;;;;;;;;;;;;;;5053177;28;4908;-48
2023/04/02 00:08:57;;;;;;;;;;;;;;;;;;5049440;28;4499;-50
2023/04/02 00:11:30;;;;;;;;;;;;;;;;;;5044254;28;4754;-51
2023/04/02 00:13:55;;;;;;;;;;;;;;;;;;5069388;28;1192;-49
2023/04/02 00:16:21;;;;;;;;;;;;;;;;;;5046157;28;4913;-48
2023/04/02 00:18:47;;;;;;;;;;;;;;;;;;5079444;28;4983;-48
2023/04/02 00:21:18;;;;;;;;;;;;;;;;;;5038502;28;4864;-50
2023/04/02 00:23:43;;;;;;;;;;;;;;;;;;5039307;28;5219;-48
2023/04/02 00:26:21;;;;;;;;;;;;;;;;;;5037522;28;4668;-49
2023/04/02 00:28:47;;;;;;;;;;;;;;;;;;5042936;28;2008;-48
2023/04/02 00:31:12;;;;;;;;;;;;;;;;;;5046504;28;4973;-46
2023/04/02 00:33:37;;;;;;;;;;;;;;;;;;5045784;28;4488;-48
2023/04/02 00:36:05;;;;;;;;;;;;;;;;;;5080189;28;4602;-46
2023/04/02 00:38:30;;;;;;;;;;;;;;;;;;5046844;28;4474;-48
2023/04/02 00:40:57;;;;;;;;;;;;;;;;;;5049787;28;1164;-50
2023/04/02 00:43:23;;;;;;;;;;;;;;;;;;5080852;28;5359;-50
2023/04/02 00:45:53;;;;;;;;;;;;;;;;;;5081058;28;5200;-48
2023/04/02 00:48:24;;;;;;;;;;;;;;;;;;5047702;28;4416;-47
2023/04/02 00:50:49;;;;;;;;;;;;;;;;;;5049495;28;4431;-49
2023/04/02 00:53:22;;;;;;;;;;;;;;;;;;5049062;28;5062;-44
2023/04/02 00:55:48;;;;;;;;;;;;;;;;;;5048472;28;1152;-50
2023/04/02 00:58:25;;;;;;;;;;;;;;;;;;5048922;28;5367;-50
2023/04/02 01:00:51;;;;;;;;;;;;;;;;;;5048849;28;4406;-51
2023/04/02 01:03:16;;;;;;;;;;;;;;;;;;5078625;28;4696;-49
2023/04/02 01:05:51;;;;;;;;;;;;;;;;;;5033290;28;4978;-47
2023/04/02 01:08:45;;;;;;;;;;;;;;;;;;5080386;28;5138;-47
2023/04/02 01:11:10;;;;;;;;;;;;;;;;;;5037900;28;4638;-50
2023/04/02 01:13:38;;;;;;;;;;;;;;;;;;5047634;28;1145;-49
2023/04/02 01:16:06;;;;;;;;;;;;;;;;;;5043923;28;4491;-50
2023/04/02 01:18:32;;;;;;;;;;;;;;;;;;5046842;28;4581;-46
2023/04/02 01:20:57;;;;;;;;;;;;;;;;;;5046951;28;4486;-48
2023/04/02 01:23:34;;;;;;;;;;;;;;;;;;5045838;28;4969;-48
2023/04/02 01:25:59;;;;;;;;;;;;;;;;;;5078704;28;4599;-46
2023/04/02 01:28:32;;;;;;;;;;;;;;;;;;5040258;28;3406;-52
2023/04/02 01:30:57;;;;;;;;;;;;;;;;;;5061563;28;5846;-49
2023/04/02 01:33:24;;;;;;;;;;;;;;;;;;5067506;28;4630;-50
2023/04/02 01:35:56;;;;;;;;;;;;;;;;;;5043309;28;4709;-52
2023/04/02 01:38:33;;;;;;;;;;;;;;;;;;5084211;28;4519;-48
2023/04/02 01:41:00;;;;;;;;;;;;;;;;;;5085345;28;2207;-49
2023/04/02 01:43:30;;;;;;;;;;;;;;;;;;5083370;28;4574;-50
2023/04/02 01:45:56;;;;;;;;;;;;;;;;;;5083958;28;4811;-50
2023/04/02 01:48:23;;;;;;;;;;;;;;;;;;5049709;28;5088;-47
2023/04/02 01:50:50;;;;;;;;;;;;;;;;;;5047507;28;5070;-49
2023/04/02 01:53:15;;;;;;;;;;;;;;;;;;5075542;28;4752;-48
2023/04/02 01:55:45;;;;;;;;;;;;;;;;;;5060699;28;3343;-49
2023/04/02 01:58:11;;;;;;;;;;;;;;;;;;5048088;28;4555;-50
2023/04/02 02:00:40;;;;;;;;;;;;;;;;;;5075091;28;5030;-49
2023/04/02 02:03:07;;;;;;;;;;;;;;;;;;5040102;28;5053;-49
2023/04/02 02:05:32;;;;;;;;;;;;;;;;;;5048133;28;5625;-49
2023/04/02 02:07:57;;;;;;;;;;;;;;;;;;5049356;28;3352;-50
2023/04/02 02:10:25;;;;;;;;;;;;;;;;;;5081921;28;4571;-49
2023/04/02 02:12:50;;;;;;;;;;;;;;;;;;5045660;28;4730;-46
2023/04/02 02:15:16;;;;;;;;;;;;;;;;;;5049587;28;5109;-49
2023/04/02 02:17:41;;;;;;;;;;;;;;;;;;5042451;28;4683;-47
2023/04/02 02:20:11;;;;;;;;;;;;;;;;;;5048113;28;4563;-48
2023/04/02 02:22:37;;;;;;;;;;;;;;;;;;5076193;28;4884;-49
2023/04/02 02:25:04;;;;;;;;;;;;;;;;;;5049153;28;4588;-48
2023/04/02 02:27:32;;;;;;;;;;;;;;;;;;5050103;28;4563;-49
2023/04/02 02:29:59;;;;;;;;;;;;;;;;;;5049819;28;5347;-50
2023/04/02 02:32:26;;;;;;;;;;;;;;;;;;5080524;28;5100;-49
2023/04/02 02:35:02;;;;;;;;;;;;;;;;;;5078262;28;3334;-48
2023/04/02 02:37:28;;;;;;;;;;;;;;;;;;5043689;28;4937;-48
2023/04/02 02:39:55;;;;;;;;;;;;;;;;;;5066376;28;4437;-47
2023/04/02 02:42:30;;;;;;;;;;;;;;;;;;5062951;28;4543;-47
2023/04/02 02:44:56;;;;;;;;;;;;;;;;;;5044166;28;5249;-52
2023/04/02 02:47:22;;;;;;;;;;;;;;;;;;5050777;28;4788;-48
2023/04/02 02:49:48;;;;;;;;;;;;;;;;;;5051453;28;1910;-47
2023/04/02 02:52:40;;;;;;;;;;;;;;;;;;5049482;28;4586;-47
2023/04/02 02:55:12;;;;;;;;;;;;;;;;;;5050491;28;5015;-48
2023/04/02 02:57:57;;;;;;;;;;;;;;;;;;5051002;28;4637;-50
2023/04/02 03:00:23;;;;;;;;;;;;;;;;;;5050347;28;4440;-48
2023/04/02 03:02:48;;;;;;;;;;;;;;;;;;5082889;28;4497;-49
2023/04/02 03:05:19;;;;;;;;;;;;;;;;;;5033427;28;4763;-48
2023/04/02 03:07:44;;;;;;;;;;;;;;;;;;5060748;28;2610;-51
2023/04/02 03:10:14;;;;;;;;;;;;;;;;;;5029328;28;4491;-52
2023/04/02 03:12:40;;;;;;;;;;;;;;;;;;5042989;28;4450;-50
2023/04/02 03:15:26;;;;;;;;;;;;;;;;;;5050707;28;4619;-50
2023/04/02 03:18:17;;;;;;;;;;;;;;;;;;5044922;28;4852;-44
2023/04/02 03:20:45;;;;;;;;;;;;;;;;;;5046717;28;4996;-52
2023/04/02 03:23:18;;;;;;;;;;;;;;;;;;5079498;28;4967;-52
2023/04/02 03:26:02;;;;;;;;;;;;;;;;;;5066293;28;1116;-47
2023/04/02 03:28:29;;;;;;;;;;;;;;;;;;5042432;28;5010;-52
2023/04/02 03:31:02;;;;;;;;;;;;;;;;;;5069617;28;4611;-49
2023/04/02 03:33:31;;;;;;;;;;;;;;;;;;5079430;28;4960;-47
2023/04/02 03:36:02;;;;;;;;;;;;;;;;;;5042383;28;4503;-49
2023/04/02 03:38:31;;;;;;;;;;;;;;;;;;5081992;28;4467;-50
2023/04/02 03:41:04;;;;;;;;;;;;;;;;;;5049097;28;1853;-51
2023/04/02 03:43:49;;;;;;;;;;;;;;;;;;5050833;28;5438;-53
2023/04/02 03:46:17;;;;;;;;;;;;;;;;;;5041718;28;4661;-52
2023/04/02 03:48:44;;;;;;;;;;;;;;;;;;5046915;28;4998;-52
2023/04/02 03:51:12;;;;;;;;;;;;;;;;;;5049925;28;4713;-50
2023/04/02 03:53:37;;;;;;;;;;;;;;;;;;5049980;28;4990;-53
2023/04/02 03:56:03;;;;;;;;;;;;;;;;;;5049659;28;4604;-48
2023/04/02 03:58:39;;;;;;;;;;;;;;;;;;5077495;28;3255;-52
2023/04/02 04:01:06;;;;;;;;;;;;;;;;;;5071499;28;4530;-51
2023/04/02 04:03:41;;;;;;;;;;;;;;;;;;5080092;28;5488;-51
2023/04/02 04:06:14;;;;;;;;;;;;;;;;;;5049712;28;5136;-51
2023/04/02 04:08:43;;;;;;;;;;;;;;;;;;5082136;28;4741;-50
2023/04/02 04:11:12;;;;;;;;;;;;;;;;;;5048450;28;4969;-50
2023/04/02 04:13:43;;;;;;;;;;;;;;;;;;5050487;28;1800;-47
2023/04/02 04:16:09;;;;;;;;;;;;;;;;;;5047578;28;4970;-52
2023/04/02 04:18:55;;;;;;;;;;;;;;;;;;5081616;28;4607;-52
2023/04/02 04:21:28;;;;;;;;;;;;;;;;;;5079651;28;4463;-51
2023/04/02 04:23:54;;;;;;;;;;;;;;;;;;5042763;28;5292;-52
2023/04/02 04:26:29;;;;;;;;;;;;;;;;;;5038168;28;4978;-49
2023/04/02 04:28:58;;;;;;;;;;;;;;;;;;5081444;28;1984;-47
2023/04/02 04:31:38;;;;;;;;;;;;;;;;;;5049487;28;4733;-51
2023/04/02 04:34:10;;;;;;;;;;;;;;;;;;5042956;28;4604;-48
2023/04/02 04:36:40;;;;;;;;;;;;;;;;;;5047532;28;4602;-50
2023/04/02 04:39:07;;;;;;;;;;;;;;;;;;5080437;28;4459;-51
2023/04/02 04:41:33;;;;;;;;;;;;;;;;;;5047583;28;5095;-49
2023/04/02 04:44:05;;;;;;;;;;;;;;;;;;5048311;28;1157;-47
2023/04/02 04:46:40;;;;;;;;;;;;;;;;;;5049142;28;4851;-52
2023/04/02 04:49:19;;;;;;;;;;;;;;;;;;5047551;28;4634;-52
2023/04/02 04:51:46;;;;;;;;;;;;;;;;;;5065045;28;5058;-50
2023/04/02 04:54:12;;;;;;;;;;;;;;;;;;5067838;28;5174;-47
2023/04/02 04:56:37;;;;;;;;;;;;;;;;;;5045957;28;4483;-48
2023/04/02 04:59:12;;;;;;;;;;;;;;;;;;5047589;28;5064;-51
2023/04/02 05:01:39;;;;;;;;;;;;;;;;;;5064431;28;2435;-50
2023/04/02 05:04:20;;;;;;;;;;;;;;;;;;5030681;28;5189;-50
2023/04/02 05:06:48;;;;;;;;;;;;;;;;;;5041372;28;4480;-48
2023/04/02 05:09:19;;;;;;;;;;;;;;;;;;5048787;28;4534;-50
2023/04/02 05:11:56;;;;;;;;;;;;;;;;;;5034124;28;4941;-50
2023/04/02 05:14:32;;;;;;;;;;;;;;;;;;5052793;28;4588;-51
2023/04/02 05:17:06;;;;;;;;;;;;;;;;;;5050336;28;1108;-46
2023/04/02 05:19:36;;;;;;;;;;;;;;;;;;5067482;28;5043;-48
2023/04/02 05:22:11;;;;;;;;;;;;;;;;;;5084650;28;5049;-50
2023/04/02 05:24:47;;;;;;;;;;;;;;;;;;5042096;28;4953;-50
2023/04/02 05:27:21;;;;;;;;;;;;;;;;;;5079767;28;5049;-50
2023/04/02 05:29:49;;;;;;;;;;;;;;;;;;5068380;28;5193;-51
2023/04/02 05:32:43;;;;;;;;;;;;;;;;;;5084208;28;4552;-47
2023/04/02 05:35:15;;;;;;;;;;;;;;;;;;5031317;28;4677;-47
2023/04/02 05:37:41;;;;;;;;;;;;;;;;;;5042055;28;3411;-54
2023/04/02 05:40:12;;;;;;;;;;;;;;;;;;5078967;28;4785;-50
2023/04/02 05:42:37;;;;;;;;;;;;;;;;;;5083945;28;4669;-50
2023/04/02 05:45:02;;;;;;;;;;;;;;;;;;5051517;28;4653;-49
2023/04/02 05:47:28;;;;;;;;;;;;;;;;;;5052290;28;5084;-50
2023/04/02 05:49:54;;;;;;;;;;;;;;;;;;5084670;28;2018;-49
2023/04/02 05:52:22;;;;;;;;;;;;;;;;;;5051868;28;4409;-49
2023/04/02 05:54:48;;;;;;;;;;;;;;;;;;5077159;28;6321;-50
2023/04/02 05:57:19;;;;;;;;;;;;;;;;;;5075668;28;4664;-59
2023/04/02 05:59:52;;;;;;;;;;;;;;;;;;5054221;28;5122;-58
2023/04/02 06:02:21;;;;;;;;;;;;;;;;;;5083800;28;4908;-60
2023/04/02 06:04:49;;;;;;;;;;;;;;;;;;5047019;28;3316;-62
2023/04/02 06:07:17;;;;;;;;;;;;;;;;;;5075636;28;4504;-52
2023/04/02 06:09:48;;;;;;;;;;;;;;;;;;5043679;28;5097;-49
2023/04/02 06:12:18;;;;;;;;;;;;;;;;;;5070016;28;4381;-48
2023/04/02 06:14:43;;;;;;;;;;;;;;;;;;5080005;28;4517;-50
2023/04/02 06:17:15;;;;;;;;;;;;;;;;;;5080051;28;4941;-50
2023/04/02 06:19:40;;;;;;;;;;;;;;;;;;5038313;28;3272;-51
2023/04/02 06:22:29;;;;;;;;;;;;;;;;;;5081255;28;4980;-50
2023/04/02 06:24:59;;;;;;;;;;;;;;;;;;5082655;28;5051;-51
2023/04/02 06:27:25;;;;;;;;;;;;;;;;;;5049664;28;5008;-49
2023/04/02 06:29:51;;;;;;;;;;;;;;;;;;5051373;28;4534;-49
2023/04/02 06:32:17;;;;;;;;;;;;;;;;;;5046746;28;4622;-51
2023/04/02 06:34:42;;;;;;;;;;;;;;;;;;5075902;28;3467;-51
2023/04/02 06:37:13;;;;;;;;;;;;;;;;;;5066108;28;4663;-52
2023/04/02 06:39:39;;;;;;;;;;;;;;;;;;5040676;28;4636;-52
2023/04/02 06:42:16;;;;;;;;;;;;;;;;;;5042876;28;4530;-49
2023/04/02 06:44:41;;;;;;;;;;;;;;;;;;5083270;28;5157;-50
2023/04/02 06:47:16;;;;;;;;;;;;;;;;;;5040048;28;5057;-58
2023/04/02 06:49:45;;;;;;;;;;;;;;;;;;5043969;28;3254;-61
2023/04/02 06:52:19;;;;;;;;;;;;;;;;;;5050071;28;4480;-60
2023/04/02 06:54:45;;;;;;;;;;;;;;;;;;5048813;28;4520;-64
2023/04/02 06:57:10;;;;;;;;;;;;;;;;;;5049541;28;4463;-62
2023/04/02 06:59:36;;;;;;;;;;;;;;;;;;5048497;28;4586;-59
2023/04/02 07:02:02;;;;;;;;;;;;;;;;;;5081831;28;4519;-61
2023/04/02 07:04:27;;;;;;;;;;;;;;;;;;5077348;28;3210;-60
2023/04/02 07:06:53;;;;;;;;;;;;;;;;;;5072471;28;4758;-65
2023/04/02 07:09:18;;;;;;;;;;;;;;;;;;5049434;28;4658;-63
2023/04/02 07:11:44;;;;;;;;;;;;;;;;;;5049241;28;4753;-64
2023/04/02 07:14:11;;;;;;;;;;;;;;;;;;5048978;28;4715;-61
2023/04/02 07:16:36;;;;;;;;;;;;;;;;;;5047715;28;3282;-56
2023/04/02 07:19:03;;;;;;;;;;;;;;;;;;5036755;28;4697;-56
2023/04/02 07:21:28;;;;;;;;;;;;;;;;;;5049199;28;4562;-63
2023/04/02 07:23:53;;;;;;;;;;;;;;;;;;5042839;28;4946;-65
2023/04/02 07:26:21;;;;;;;;;;;;;;;;;;5046847;28;4676;-63
2023/04/02 07:28:46;;;;;;;;;;;;;;;;;;5047186;28;3482;-62
2023/04/02 07:31:15;;;;;;;;;;;;;;;;;;5049885;28;4585;-62
2023/04/02 07:33:40;;;;;;;;;;;;;;;;;;5046010;28;4462;-64
2023/04/02 07:36:06;;;;;;;;;;;;;;;;;;5035525;28;5283;-56
2023/04/02 07:38:31;;;;;;;;;;;;;;;;;;5034925;28;5145;-64
2023/04/02 07:40:56;;;;;;;;;;;;;;;;;;5048285;28;3260;-61
2023/04/02 07:43:22;;;;;;;;;;;;;;;;;;5044499;28;4587;-61
2023/04/02 07:45:48;;;;;;;;;;;;;;;;;;5044171;28;4522;-62
2023/04/02 07:48:14;;;;;;;;;;;;;;;;;;5047817;28;4515;-61
2023/04/02 07:50:39;;;;;;;;;;;;;;;;;;5045355;28;5029;-63
2023/04/02 07:53:05;;;;;;;;;;;;;;;;;;5047950;28;4565;-64
2023/04/02 07:55:31;;;;;;;;;;;;;;;;;;5048304;28;3725;-58
2023/04/02 07:57:57;;;;;;;;;;;;;;;;;;5045036;28;4618;-60
2023/04/02 08:00:22;;;;;;;;;;;;;;;;;;5043387;28;4985;-64
2023/04/02 08:02:48;;;;;;;;;;;;;;;;;;5046954;28;4483;-62
2023/04/02 08:05:13;;;;;;;;;;;;;;;;;;5042206;28;4498;-60
2023/04/02 08:07:38;;;;;;;;;;;;;;;;;;5043123;28;3304;-63
2023/04/02 08:10:05;;;;;;;;;;;;;;;;;;5044854;28;4526;-59
2023/04/02 08:12:30;;;;;;;;;;;;;;;;;;5044676;28;5016;-66
2023/04/02 08:14:55;;;;;;;;;;;;;;;;;;5045766;28;4583;-63
2023/04/02 08:17:21;;;;;;;;;;;;;;;;;;5073410;28;4460;-65
2023/04/02 08:19:46;;;;;;;;;;;;;;;;;;5045895;28;3289;-62
2023/04/02 08:22:11;;;;;;;;;;;;;;;;;;5044207;28;5123;-58
2023/04/02 08:24:36;;;;;;;;;;;;;;;;;;5074640;28;5188;-55
2023/04/02 08:27:02;;;;;;;;;;;;;;;;;;5042366;28;4756;-59
2023/04/02 08:29:31;;;;;;;;;;;;;;;;;;5048057;28;5317;-61
2023/04/02 08:31:56;;;;;;;;;;;;;;;;;;5047218;28;3257;-65
2023/04/02 08:34:22;;;;;;;;;;;;;;;;;;5040635;28;5009;-61
2023/04/02 08:36:47;;;;;;;;;;;;;;;;;;5035781;28;4517;-57
2023/04/02 08:39:13;;;;;;;;;;;;;;;;;;5047366;28;4537;-63
2023/04/02 08:42:10;;;;;;;;;;;;;;;;;;5046767;28;5129;-52
2023/04/02 08:44:39;;;;;;;;;;;;;;;;;;5018678;28;4606;-63
2023/04/02 08:47:04;;;;;;;;;;;;;;;;;;5044036;28;5086;-52
2023/04/02 08:49:31;;;;;;;;;;;;;;;;;;5047541;28;3338;-62
2023/04/02 08:51:56;;;;;;;;;;;;;;;;;;5079280;28;4616;-61
2023/04/02 08:54:26;;;;;;;;;;;;;;;;;;5041134;28;4458;-58
2023/04/02 08:56:54;;;;;;;;;;;;;;;;;;5072812;28;5102;-61
2023/04/02 08:59:26;;;;;;;;;;;;;;;;;;5071024;28;4545;-61
2023/04/02 09:01:54;;;;;;;;;;;;;;;;;;5044528;28;3417;-59
2023/04/02 09:04:20;;;;;;;;;;;;;;;;;;5039675;28;4417;-59
2023/04/02 09:06:46;;;;;;;;;;;;;;;;;;5078298;28;4775;-64
2023/04/02 09:09:11;;;;;;;;;;;;;;;;;;5045790;28;4896;-63
2023/04/02 09:11:59;;;;;;;;;;;;;;;;;;5077523;28;4645;-63
2023/04/02 09:14:43;;;;;;;;;;;;;;;;;;5042743;28;4895;-60
2023/04/02 09:17:14;;;;;;;;;;;;;;;;;;5030362;28;5050;-63
2023/04/02 09:19:40;;;;;;;;;;;;;;;;;;5080188;28;3175;-62
2023/04/02 09:22:07;;;;;;;;;;;;;;;;;;5043219;28;4844;-59
2023/04/02 09:24:33;;;;;;;;;;;;;;;;;;5039011;28;4583;-65
2023/04/02 09:26:58;;;;;;;;;;;;;;;;;;5047775;28;4985;-61
2023/04/02 09:29:40;;;;;;;;;;;;;;;;;;5046512;28;4724;-62
2023/04/02 09:32:12;;;;;;;;;;;;;;;;;;5071592;28;4930;-64
2023/04/02 09:34:37;;;;;;;;;;;;;;;;;;5059904;28;3205;-51
2023/04/02 09:37:06;;;;;;;;;;;;;;;;;;5024610;28;4487;-54
2023/04/02 09:39:31;;;;;;;;;;;;;;;;;;5050191;28;4409;-63
2023/04/02 09:41:56;;;;;;;;;;;;;;;;;;5052672;28;4772;-59
2023/04/02 09:44:25;;;;;;;;;;;;;;;;;;5033786;28;4739;-61
2023/04/02 09:46:52;;;;;;;;;;;;;;;;;;5037793;28;3333;-61
2023/04/02 09:49:17;;;;;;;;;;;;;;;;;;5041470;28;4599;-63
2023/04/02 09:51:42;;;;;;;;;;;;;;;;;;5076447;28;4758;-62
2023/04/02 09:54:11;;;;;;;;;;;;;;;;;;5031288;28;4907;-61
2023/04/02 09:56:36;;;;;;;;;;;;;;;;;;5072356;28;4682;-55
2023/04/02 09:59:06;;;;;;;;;;;;;;;;;;5044948;28;4832;-55
2023/04/02 10:01:38;;;;;;;;;;;;;;;;;;5052272;28;3211;-54
2023/04/02 10:04:04;;;;;;;;;;;;;;;;;;5049576;28;4842;-48
2023/04/02 10:06:29;;;;;;;;;;;;;;;;;;5041708;28;5151;-55
2023/04/02 10:08:54;;;;;;;;;;;;;;;;;;5047045;28;4765;-53
2023/04/02 10:11:27;;;;;;;;;;;;;;;;;;5049835;28;5122;-59
2023/04/02 10:13:58;;;;;;;;;;;;;;;;;;5077694;28;3458;-54
2023/04/02 10:16:25;;;;;;;;;;;;;;;;;;5045537;28;4851;-56
2023/04/02 10:18:53;;;;;;;;;;;;;;;;;;5079910;28;5058;-58
2023/04/02 10:21:19;;;;;;;;;;;;;;;;;;5047053;28;5054;-60
2023/04/02 10:23:44;;;;;;;;;;;;;;;;;;5045783;28;4924;-64
2023/04/02 10:26:21;;;;;;;;;;;;;;;;;;5048547;28;5002;-57
2023/04/02 10:28:49;;;;;;;;;;;;;;;;;;5043071;28;3305;-60
2023/04/02 10:31:25;;;;;;;;;;;;;;;;;;5042042;28;4643;-62
2023/04/02 10:33:50;;;;;;;;;;;;;;;;;;5076340;28;4497;-63
2023/04/02 10:36:35;;;;;;;;;;;;;;;;;;5050323;28;4475;-62
2023/04/02 10:39:07;;;;;;;;;;;;;;;;;;5050612;28;5256;-62
2023/04/02 10:41:38;;;;;;;;;;;;;;;;;;5050604;28;5005;-63
2023/04/02 10:44:22;;;;;;;;;;;;;;;;;;5050750;28;4472;-62
2023/04/02 10:46:51;;;;;;;;;;;;;;;;;;5050865;28;1340;-63
2023/04/02 10:49:19;;;;;;;;;;;;;;;;;;5050937;28;4538;-60
2023/04/02 10:51:47;;;;;;;;;;;;;;;;;;5050743;28;5020;-62
2023/04/02 10:54:12;;;;;;;;;;;;;;;;;;5050892;28;4709;-62
2023/04/02 10:56:38;;;;;;;;;;;;;;;;;;5050537;28;4487;-62
2023/04/02 10:59:23;;;;;;;;;;;;;;;;;;5078985;28;4462;-63
2023/04/02 11:01:48;;;;;;;;;;;;;;;;;;5041239;28;1305;-64
2023/04/02 11:04:21;;;;;;;;;;;;;;;;;;5045057;28;4599;-63
2023/04/02 11:07:07;;;;;;;;;;;;;;;;;;5046255;28;4429;-60
2023/04/02 11:09:35;;;;;;;;;;;;;;;;;;5030129;28;4994;-63
2023/04/02 11:12:00;;;;;;;;;;;;;;;;;;5065649;28;4482;-63
2023/04/02 11:14:29;;;;;;;;;;;;;;;;;;5047912;28;4999;-62
2023/04/02 11:16:57;;;;;;;;;;;;;;;;;;5046808;28;1392;-64
2023/04/02 11:19:25;;;;;;;;;;;;;;;;;;5048597;28;4580;-63
2023/04/02 11:21:54;;;;;;;;;;;;;;;;;;5049683;28;4961;-63
2023/04/02 11:24:40;;;;;;;;;;;;;;;;;;5039673;28;5111;-63
2023/04/02 11:27:06;;;;;;;;;;;;;;;;;;5042643;28;4618;-62
2023/04/02 11:29:31;;;;;;;;;;;;;;;;;;5072868;28;5113;-62
2023/04/02 11:32:12;;;;;;;;;;;;;;;;;;5049395;28;1436;-62
2023/04/02 11:34:40;;;;;;;;;;;;;;;;;;5049038;28;5182;-62
2023/04/02 11:37:09;;;;;;;;;;;;;;;;;;5081995;28;4992;-62
2023/04/02 11:39:49;;;;;;;;;;;;;;;;;;5049930;28;4456;-63
2023/04/02 11:42:15;;;;;;;;;;;;;;;;;;5048792;28;5223;-63
2023/04/02 11:44:40;;;;;;;;;;;;;;;;;;5050343;28;4710;-58
2023/04/02 11:47:14;;;;;;;;;;;;;;;;;;5048178;28;4638;-62
2023/04/02 11:49:57;;;;;;;;;;;;;;;;;;5066055;28;2286;-64
2023/04/02 11:52:23;;;;;;;;;;;;;;;;;;5045326;28;4932;-61
2023/04/02 11:54:55;;;;;;;;;;;;;;;;;;5038332;28;4444;-61
2023/04/02 11:57:46;;;;;;;;;;;;;;;;;;5079883;28;4987;-60
2023/04/02 12:00:30;;;;;;;;;;;;;;;;;;5043911;28;5089;-61
2023/04/02 12:03:03;;;;;;;;;;;;;;;;;;5081406;28;5285;-61
2023/04/02 12:05:30;;;;;;;;;;;;;;;;;;5043363;28;4534;-61
2023/04/02 12:08:14;;;;;;;;;;;;;;;;;;5081697;28;1979;-62
2023/04/02 12:10:49;;;;;;;;;;;;;;;;;;5033344;28;4616;-61
2023/04/02 12:13:40;;;;;;;;;;;;;;;;;;5042693;28;4448;-62
2023/04/02 12:16:08;;;;;;;;;;;;;;;;;;5045016;28;4453;-61
2023/04/02 12:18:34;;;;;;;;;;;;;;;;;;5081177;28;5046;-60
2023/04/02 12:20:59;;;;;;;;;;;;;;;;;;5047520;28;5131;-61
2023/04/02 12:23:31;;;;;;;;;;;;;;;;;;5047564;28;5127;-60
2023/04/02 12:25:57;;;;;;;;;;;;;;;;;;5048253;28;1129;-60
2023/04/02 12:28:23;;;;;;;;;;;;;;;;;;5048826;28;5079;-61
2023/04/02 12:30:48;;;;;;;;;;;;;;;;;;5047625;28;4466;-61
2023/04/02 12:33:15;;;;;;;;;;;;;;;;;;5049113;28;4643;-60
2023/04/02 12:35:40;;;;;;;;;;;;;;;;;;5043907;28;4456;-61
2023/04/02 12:38:17;;;;;;;;;;;;;;;;;;5047507;28;4716;-61
2023/04/02 12:40:49;;;;;;;;;;;;;;;;;;5081092;28;1357;-58
2023/04/02 12:43:25;;;;;;;;;;;;;;;;;;5048011;28;4587;-61
2023/04/02 12:45:51;;;;;;;;;;;;;;;;;;5047350;28;4625;-60
2023/04/02 12:48:16;;;;;;;;;;;;;;;;;;5047429;28;5030;-60
2023/04/02 12:50:41;;;;;;;;;;;;;;;;;;5048688;28;4503;-61
2023/04/02 12:53:12;;;;;;;;;;;;;;;;;;5059537;28;5071;-62
2023/04/02 12:55:37;;;;;;;;;;;;;;;;;;5047748;28;3328;-60
2023/04/02 12:58:02;;;;;;;;;;;;;;;;;;5080877;28;4628;-62
2023/04/02 13:00:28;;;;;;;;;;;;;;;;;;5046632;28;5227;-61
2023/04/02 13:03:00;;;;;;;;;;;;;;;;;;5047589;28;5245;-62
2023/04/02 13:05:31;;;;;;;;;;;;;;;;;;5043631;28;5859;-60
2023/04/02 13:07:57;;;;;;;;;;;;;;;;;;5048068;28;3242;-61
2023/04/02 13:10:24;;;;;;;;;;;;;;;;;;5080854;28;4578;-57
2023/04/02 13:12:53;;;;;;;;;;;;;;;;;;5043263;28;5086;-57
2023/04/02 13:15:22;;;;;;;;;;;;;;;;;;5067014;28;4598;-60
2023/04/02 13:18:00;;;;;;;;;;;;;;;;;;5070857;28;4490;-59
2023/04/02 13:20:26;;;;;;;;;;;;;;;;;;5047259;28;4486;-58
2023/04/02 13:22:51;;;;;;;;;;;;;;;;;;5043653;28;5034;-58
2023/04/02 13:25:17;;;;;;;;;;;;;;;;;;5048140;28;5012;-58
2023/04/02 13:27:42;;;;;;;;;;;;;;;;;;5048606;28;4504;-58
2023/04/02 13:30:08;;;;;;;;;;;;;;;;;;5048494;28;4636;-59
2023/04/02 13:32:33;;;;;;;;;;;;;;;;;;5049001;28;4689;-59
2023/04/02 13:34:59;;;;;;;;;;;;;;;;;;5040465;28;2772;-59
2023/04/02 13:37:24;;;;;;;;;;;;;;;;;;5032539;28;4581;-59
2023/04/02 13:39:49;;;;;;;;;;;;;;;;;;5032476;28;4434;-56
2023/04/02 13:42:14;;;;;;;;;;;;;;;;;;5042829;28;4619;-58
2023/04/02 13:44:40;;;;;;;;;;;;;;;;;;5050673;28;4614;-58
2023/04/02 13:47:05;;;;;;;;;;;;;;;;;;5050759;28;4514;-58
2023/04/02 13:49:30;;;;;;;;;;;;;;;;;;5052446;28;1973;-58
2023/04/02 13:51:59;;;;;;;;;;;;;;;;;;5051858;28;4401;-57
2023/04/02 13:54:29;;;;;;;;;;;;;;;;;;5051912;28;4524;-58
2023/04/02 13:56:55;;;;;;;;;;;;;;;;;;5051799;28;4481;-57
2023/04/02 13:59:20;;;;;;;;;;;;;;;;;;5051692;28;5031;-58
2023/04/02 14:01:46;;;;;;;;;;;;;;;;;;5052328;28;1048;-58
2023/04/02 14:04:12;;;;;;;;;;;;;;;;;;5046025;28;4538;-58
2023/04/02 14:06:48;;;;;;;;;;;;;;;;;;5049147;28;4632;-58
2023/04/02 14:09:25;;;;;;;;;;;;;;;;;;5051703;28;4906;-58
2023/04/02 14:11:57;;;;;;;;;;;;;;;;;;5043654;28;4749;-59
2023/04/02 14:14:22;;;;;;;;;;;;;;;;;;5041738;28;4515;-57
2023/04/02 14:16:56;;;;;;;;;;;;;;;;;;5045175;28;3263;-58
2023/04/02 14:19:25;;;;;;;;;;;;;;;;;;5046062;28;4405;-62
2023/04/02 14:21:50;;;;;;;;;;;;;;;;;;5042001;28;4595;-61
2023/04/02 14:24:34;;;;;;;;;;;;;;;;;;5043372;28;5122;-61
2023/04/02 14:27:18;;;;;;;;;;;;;;;;;;5048037;28;4873;-59
2023/04/02 14:29:46;;;;;;;;;;;;;;;;;;5048517;28;4698;-59
2023/04/02 14:32:20;;;;;;;;;;;;;;;;;;5050620;28;4723;-59
2023/04/02 14:34:58;;;;;;;;;;;;;;;;;;5041560;28;1460;-59
2023/04/02 14:37:29;;;;;;;;;;;;;;;;;;5058945;28;4631;-59
2023/04/02 14:40:02;;;;;;;;;;;;;;;;;;5081952;28;4861;-58
2023/04/02 14:42:33;;;;;;;;;;;;;;;;;;5049990;28;5071;-60
2023/04/02 14:45:04;;;;;;;;;;;;;;;;;;5050279;28;4653;-59
2023/04/02 14:47:34;;;;;;;;;;;;;;;;;;5083237;28;4418;-59
2023/04/02 14:50:10;;;;;;;;;;;;;;;;;;5050305;28;1910;-59
2023/04/02 14:52:35;;;;;;;;;;;;;;;;;;5049070;28;5343;-59
2023/04/02 14:55:02;;;;;;;;;;;;;;;;;;5048157;28;5083;-59
2023/04/02 14:57:32;;;;;;;;;;;;;;;;;;5082658;28;5027;-59
2023/04/02 15:00:00;;;;;;;;;;;;;;;;;;5082585;28;5053;-59
2023/04/02 15:02:57;;;;;;;;;;;;;;;;;;5050792;28;4715;-59
2023/04/02 15:05:38;;;;;;;;;;;;;;;;;;5037858;28;4852;-59
2023/04/02 15:08:05;;;;;;;;;;;;;;;;;;5050617;28;4889;-59
2023/04/02 15:10:31;;;;;;;;;;;;;;;;;;5034855;28;1148;-59
2023/04/02 15:12:57;;;;;;;;;;;;;;;;;;5082177;28;4455;-58
2023/04/02 15:15:40;;;;;;;;;;;;;;;;;;5050503;28;4475;-59
2023/04/02 15:18:08;;;;;;;;;;;;;;;;;;5050241;28;4670;-58
2023/04/02 15:20:51;;;;;;;;;;;;;;;;;;5050316;28;4488;-58
2023/04/02 15:23:31;;;;;;;;;;;;;;;;;;5081953;28;5115;-59
2023/04/02 15:26:17;;;;;;;;;;;;;;;;;;5083115;28;1152;-59
2023/04/02 15:28:47;;;;;;;;;;;;;;;;;;5050049;28;4555;-59
2023/04/02 15:31:12;;;;;;;;;;;;;;;;;;5082554;28;4430;-59
2023/04/02 15:33:42;;;;;;;;;;;;;;;;;;5048597;28;4632;-59
2023/04/02 15:36:18;;;;;;;;;;;;;;;;;;5046204;28;4665;-59
2023/04/02 15:38:44;;;;;;;;;;;;;;;;;;5041333;28;4719;-59
2023/04/02 15:41:13;;;;;;;;;;;;;;;;;;5081186;28;5149;-58
2023/04/02 15:43:38;;;;;;;;;;;;;;;;;;5050044;28;1487;-57
2023/04/02 15:46:15;;;;;;;;;;;;;;;;;;5049824;28;4575;-59
2023/04/02 15:48:50;;;;;;;;;;;;;;;;;;5049818;28;4605;-59
2023/04/02 15:51:15;;;;;;;;;;;;;;;;;;5049782;28;4395;-59
2023/04/02 15:54:00;;;;;;;;;;;;;;;;;;5049798;28;4607;-59
2023/04/02 15:56:35;;;;;;;;;;;;;;;;;;5049236;28;4604;-59
2023/04/02 15:59:26;;;;;;;;;;;;;;;;;;5049918;28;4497;-54
2023/04/02 16:02:12;;;;;;;;;;;;;;;;;;5034206;28;1188;-59
2023/04/02 16:04:55;;;;;;;;;;;;;;;;;;5020915;28;5019;-59
2023/04/02 16:07:21;;;;;;;;;;;;;;;;;;5038072;28;5016;-58
2023/04/02 16:09:46;;;;;;;;;;;;;;;;;;5048518;28;4624;-58
2023/04/02 16:12:18;;;;;;;;;;;;;;;;;;5047639;28;5095;-59
2023/04/02 16:14:44;;;;;;;;;;;;;;;;;;5049072;28;4623;-59
2023/04/02 16:17:12;;;;;;;;;;;;;;;;;;5047915;28;4976;-57
2023/04/02 16:19:39;;;;;;;;;;;;;;;;;;5063517;28;1285;-58
2023/04/02 16:22:05;;;;;;;;;;;;;;;;;;5081011;28;5031;-58
2023/04/02 16:24:30;;;;;;;;;;;;;;;;;;5049197;28;4410;-58
2023/04/02 16:26:57;;;;;;;;;;;;;;;;;;5080858;28;5117;-58
2023/04/02 16:29:25;;;;;;;;;;;;;;;;;;5081487;28;4487;-58
2023/04/02 16:32:12;;;;;;;;;;;;;;;;;;5049686;28;1379;-59
2023/04/02 16:34:41;;;;;;;;;;;;;;;;;;5044586;28;4721;-59
2023/04/02 16:37:09;;;;;;;;;;;;;;;;;;5080262;28;5044;-58
2023/04/02 16:39:53;;;;;;;;;;;;;;;;;;5077775;28;4472;-58
2023/04/02 16:42:31;;;;;;;;;;;;;;;;;;5043591;28;4474;-66
2023/04/02 16:45:06;;;;;;;;;;;;;;;;;;5038071;28;5018;-67
2023/04/02 16:47:40;;;;;;;;;;;;;;;;;;5030164;28;4495;-65
2023/04/02 16:50:09;;;;;;;;;;;;;;;;;;5048161;28;4990;-63
2023/04/02 16:52:34;;;;;;;;;;;;;;;;;;5074797;28;3412;-65
2023/04/02 16:55:02;;;;;;;;;;;;;;;;;;5042938;28;4469;-61
2023/04/02 16:57:27;;;;;;;;;;;;;;;;;;5032287;28;4398;-64
2023/04/02 16:59:53;;;;;;;;;;;;;;;;;;5041905;28;4836;-68
2023/04/02 17:02:33;;;;;;;;;;;;;;;;;;5047245;28;4580;-68
2023/04/02 17:05:17;;;;;;;;;;;;;;;;;;5043974;28;3230;-69
2023/04/02 17:07:49;;;;;;;;;;;;;;;;;;5045662;28;4412;-69
2023/04/02 17:10:43;;;;;;;;;;;;;;;;;;5081268;28;4596;-70
2023/04/02 17:13:28;;;;;;;;;;;;;;;;;;5024443;28;5131;-69
2023/04/02 17:16:14;;;;;;;;;;;;;;;;;;5031275;28;4426;-69
2023/04/02 17:18:40;;;;;;;;;;;;;;;;;;5044569;28;4621;-68
2023/04/02 17:21:05;;;;;;;;;;;;;;;;;;5081904;28;5068;-68
2023/04/02 17:23:31;;;;;;;;;;;;;;;;;;5083239;28;5170;-69